createdAt,value
2019-01-13T00:02:16.396Z,99742.85
2019-01-13T00:04:44.834Z,99741.05
2019-01-13T00:07:13.310Z,99746.77
2019-01-13T00:09:41.771Z,99743.67
2019-01-13T00:12:10.221Z,99740.73
2019-01-13T00:14:38.702Z,99740.94
2019-01-13T00:17:07.145Z,99732.02
2019-01-13T00:19:56.253Z,99735.97
2019-01-13T00:22:24.708Z,99735.04
2019-01-13T00:24:53.177Z,99730.66
2019-01-13T00:27:21.657Z,99732.09
2019-01-13T00:29:50.122Z,99735.97
2019-01-13T00:32:18.634Z,99742.34
2019-01-13T00:34:47.108Z,99741.80
2019-01-13T00:37:15.562Z,99735.16
2019-01-13T00:39:44.036Z,99750.06
2019-01-13T00:42:12.479Z,99745.52
2019-01-13T00:44:41.028Z,99747.38
2019-01-13T00:47:09.483Z,99753.49
2019-01-13T00:49:37.953Z,99760.43
2019-01-13T00:52:06.395Z,99755.48
2019-01-13T00:54:34.874Z,99753.96
2019-01-13T00:57:03.328Z,99751.58
2019-01-13T00:59:31.797Z,99767.16
2019-01-13T01:02:00.265Z,99752.74
2019-01-13T01:04:28.746Z,99750.37
2019-01-13T01:06:57.215Z,99749.05
2019-01-13T01:09:25.697Z,99747.09
2019-01-13T01:14:41.684Z,99739.98
2019-01-13T01:17:10.134Z,99735.24
2019-01-13T01:19:38.664Z,99736.86
2019-01-13T01:22:26.402Z,99744.95
2019-01-13T01:24:54.869Z,99729.38
2019-01-13T01:27:23.323Z,99746.07
2019-01-13T01:29:51.793Z,99737.30
2019-01-13T01:32:20.234Z,99748.34
2019-01-13T01:34:48.790Z,99740.14
2019-01-13T01:37:17.232Z,99746.37
2019-01-13T01:39:45.710Z,99745.39
2019-01-13T01:42:14.161Z,99751.50
2019-01-13T01:44:42.649Z,99752.80
2019-01-13T01:47:11.099Z,99755.63
2019-01-13T01:49:39.576Z,99764.19
2019-01-13T01:52:08.017Z,99770.19
2019-01-13T01:54:36.488Z,99759.63
2019-01-13T01:57:25.738Z,99772.49
2019-01-13T01:59:54.216Z,99767.36
2019-01-13T02:02:22.669Z,99764.19
2019-01-13T02:04:51.156Z,99768.58
2019-01-13T02:07:19.596Z,99761.92
2019-01-13T02:09:48.074Z,99761.57
2019-01-13T02:12:16.522Z,99754.59
2019-01-13T02:14:45.010Z,99766.84
2019-01-13T02:17:13.480Z,99768.28
2019-01-13T02:19:41.938Z,99759.05
2019-01-13T02:24:44.380Z,99766.78
2019-01-13T02:27:12.851Z,99763.33
2019-01-13T02:29:41.297Z,99769.62
2019-01-13T02:32:09.775Z,99767.03
2019-01-13T02:34:38.217Z,99764.37
2019-01-13T02:37:06.701Z,99769.04
2019-01-13T02:39:35.146Z,99768.64
2019-01-13T02:42:03.630Z,99765.13
2019-01-13T02:44:32.111Z,99763.61
2019-01-13T02:47:00.595Z,99751.64
2019-01-13T02:49:29.033Z,99754.23
2019-01-13T02:51:57.507Z,99758.51
2019-01-13T02:54:25.954Z,99759.73
2019-01-13T02:56:54.437Z,99759.48
2019-01-13T02:59:22.899Z,99760.09
2019-01-13T03:01:51.380Z,99752.16
2019-01-13T03:04:19.838Z,99755.67
2019-01-13T03:06:48.313Z,99752.44
2019-01-13T03:09:16.763Z,99748.73
2019-01-13T03:11:45.236Z,99746.72
2019-01-13T03:14:13.718Z,99739.67
2019-01-13T03:16:42.199Z,99743.66
2019-01-13T03:19:10.667Z,99744.64
2019-01-13T03:21:39.137Z,99751.29
2019-01-13T03:24:07.584Z,99752.16
2019-01-13T03:26:36.065Z,99741.52
2019-01-13T03:32:18.134Z,99741.33
2019-01-13T03:34:46.583Z,99741.69
2019-01-13T03:37:15.067Z,99744.75
2019-01-13T03:39:43.526Z,99749.67
2019-01-13T03:42:12.009Z,99744.45
2019-01-13T03:44:40.466Z,99743.52
2019-01-13T03:47:08.944Z,99737.13
2019-01-13T03:49:37.405Z,99741.80
2019-01-13T03:52:25.226Z,99738.34
2019-01-13T03:54:53.673Z,99726.23
2019-01-13T03:57:41.401Z,99727.24
2019-01-13T04:00:30.673Z,99727.17
2019-01-13T04:02:59.153Z,99726.78
2019-01-13T04:05:48.256Z,99730.66
2019-01-13T04:08:16.729Z,99729.04
2019-01-13T04:10:45.187Z,99733.89
2019-01-13T04:13:13.671Z,99731.63
2019-01-13T04:16:02.919Z,99725.95
2019-01-13T04:18:50.592Z,99718.22
2019-01-13T04:21:19.077Z,99716.49
2019-01-13T04:23:47.555Z,99713.76
2019-01-13T04:26:17.753Z,99709.88
2019-01-13T04:28:46.228Z,99712.03
2019-01-13T04:31:14.691Z,99706.09
2019-01-13T04:33:43.170Z,99699.03
2019-01-13T04:36:11.673Z,99704.17
2019-01-13T04:38:40.155Z,99698.03
2019-01-13T04:41:08.602Z,99692.55
2019-01-13T04:43:37.088Z,99695.80
2019-01-13T04:46:05.548Z,99687.74
2019-01-13T04:48:34.031Z,99685.44
2019-01-13T04:51:02.495Z,99689.43
2019-01-13T04:53:30.973Z,99687.63
2019-01-13T04:55:59.442Z,99692.70
2019-01-13T04:58:27.930Z,99690.88
2019-01-13T05:00:56.387Z,99677.69
2019-01-13T05:03:24.869Z,99677.65
2019-01-13T05:05:53.331Z,99682.50
2019-01-13T05:08:21.801Z,99688.09
2019-01-13T05:10:50.267Z,99683.36
2019-01-13T05:13:18.767Z,99690.33
2019-01-13T05:15:47.227Z,99687.56
2019-01-13T05:18:15.711Z,99687.48
2019-01-13T05:20:44.241Z,99687.48
2019-01-13T05:25:46.659Z,99680.13
2019-01-13T05:28:15.145Z,99690.22
2019-01-13T05:31:02.953Z,99685.44
2019-01-13T05:33:31.429Z,99686.77
2019-01-13T05:35:59.882Z,99679.02
2019-01-13T05:38:28.355Z,99676.36
2019-01-13T05:40:56.811Z,99677.03
2019-01-13T05:43:25.307Z,99672.61
2019-01-13T05:45:53.766Z,99670.70
2019-01-13T05:48:22.252Z,99669.88
2019-01-13T05:53:39.799Z,99668.39
2019-01-13T05:56:08.251Z,99660.17
2019-01-13T05:58:36.734Z,99653.45
2019-01-13T06:03:54.281Z,99638.66
2019-01-13T06:06:22.740Z,99636.23
2019-01-13T06:08:51.235Z,99635.66
2019-01-13T06:11:19.681Z,99633.34
2019-01-13T06:13:48.161Z,99629.98
2019-01-13T06:16:16.629Z,99632.64
2019-01-13T06:19:04.423Z,99631.31
2019-01-13T06:24:21.960Z,99627.23
2019-01-13T06:26:50.409Z,99622.12
2019-01-13T06:29:18.891Z,99620.78
2019-01-13T06:31:47.357Z,99620.75
2019-01-13T06:34:15.853Z,99617.50
2019-01-13T06:36:44.316Z,99622.00
2019-01-13T06:39:12.800Z,99617.94
2019-01-13T06:41:41.272Z,99618.36
2019-01-13T06:44:09.748Z,99615.66
2019-01-13T06:46:38.215Z,99618.24
2019-01-13T06:49:06.705Z,99612.48
2019-01-13T06:51:35.176Z,99614.48
2019-01-13T06:54:03.662Z,99624.73
2019-01-13T06:56:32.130Z,99621.53
2019-01-13T06:59:00.608Z,99629.59
2019-01-13T07:01:29.085Z,99630.77
2019-01-13T07:03:57.564Z,99640.15
2019-01-13T07:06:26.018Z,99629.12
2019-01-13T07:08:54.492Z,99617.89
2019-01-13T07:11:22.940Z,99617.81
2019-01-13T07:13:51.419Z,99618.48
2019-01-13T07:16:19.870Z,99607.25
2019-01-13T07:18:48.352Z,99604.59
2019-01-13T07:21:16.807Z,99606.78
2019-01-13T07:23:45.272Z,99592.94
2019-01-13T07:26:13.732Z,99593.80
2019-01-13T07:28:42.216Z,99596.41
2019-01-13T07:31:10.661Z,99590.23
2019-01-13T07:33:39.107Z,99585.65
2019-01-13T07:36:07.592Z,99580.33
2019-01-13T07:38:36.051Z,99580.17
2019-01-13T07:41:23.710Z,99568.39
2019-01-13T07:43:52.189Z,99572.86
2019-01-13T07:46:20.648Z,99569.02
2019-01-13T07:48:49.105Z,99568.79
2019-01-13T07:51:17.585Z,99559.31
2019-01-13T07:53:46.040Z,99546.00
2019-01-13T07:56:14.528Z,99546.00
2019-01-13T07:58:42.989Z,99539.20
2019-01-13T08:01:11.473Z,99547.64
2019-01-13T08:03:39.929Z,99539.02
2019-01-13T08:06:08.412Z,99536.28
2019-01-13T08:08:36.865Z,99535.03
2019-01-13T08:11:05.347Z,99518.72
2019-01-13T08:13:33.873Z,99529.71
2019-01-13T08:16:21.584Z,99522.04
2019-01-13T08:18:50.041Z,99528.22
2019-01-13T08:21:18.523Z,99522.77
2019-01-13T08:23:46.973Z,99518.27
2019-01-13T08:26:34.972Z,99517.06
2019-01-13T08:29:03.424Z,99512.05
2019-01-13T08:31:31.901Z,99516.30
2019-01-13T08:34:00.370Z,99505.81
2019-01-13T08:36:28.853Z,99502.30
2019-01-13T08:38:57.318Z,99493.03
2019-01-13T08:41:25.796Z,99492.86
2019-01-13T08:43:54.249Z,99484.49
2019-01-13T08:46:22.718Z,99479.56
2019-01-13T08:48:51.171Z,99476.84
2019-01-13T08:51:38.838Z,99479.89
2019-01-13T08:54:07.301Z,99476.63
2019-01-13T08:56:35.783Z,99461.81
2019-01-13T08:59:24.868Z,99459.24
2019-01-13T09:01:53.337Z,99456.11
2019-01-13T09:04:21.794Z,99446.48
2019-01-13T09:06:50.285Z,99437.22
2019-01-13T09:09:18.734Z,99425.49
2019-01-13T09:11:47.277Z,99417.32
2019-01-13T09:14:15.739Z,99424.72
2019-01-13T09:16:44.219Z,99418.70
2019-01-13T09:19:12.680Z,99425.78
2019-01-13T09:21:41.183Z,99422.09
2019-01-13T09:24:09.657Z,99416.38
2019-01-13T09:26:38.896Z,99408.73
2019-01-13T09:29:08.299Z,99399.20
2019-01-13T09:31:36.797Z,99389.00
2019-01-13T09:34:26.131Z,99387.45
2019-01-13T09:36:54.680Z,99382.10
2019-01-13T09:39:23.143Z,99381.18
2019-01-13T09:41:51.633Z,99373.97
2019-01-13T09:44:20.156Z,99370.62
2019-01-13T09:46:48.642Z,99360.98
2019-01-13T09:49:17.104Z,99356.05
2019-01-13T09:51:45.602Z,99341.64
2019-01-13T09:54:14.060Z,99342.36
2019-01-13T09:56:42.534Z,99334.98
2019-01-13T09:59:10.997Z,99327.65
2019-01-13T10:01:39.471Z,99315.42
2019-01-13T10:04:07.921Z,99313.99
2019-01-13T10:06:55.715Z,99313.36
2019-01-13T10:09:24.172Z,99308.19
2019-01-13T10:11:52.653Z,99295.49
2019-01-13T10:14:21.103Z,99288.73
2019-01-13T10:16:49.583Z,99270.09
2019-01-13T10:19:18.039Z,99271.84
2019-01-13T10:21:46.591Z,99265.34
2019-01-13T10:24:15.064Z,99254.54
2019-01-13T10:26:43.543Z,99237.30
2019-01-13T10:29:11.993Z,99237.38
2019-01-13T10:31:40.471Z,99227.44
2019-01-13T10:34:08.929Z,99219.07
2019-01-13T10:36:37.412Z,99212.17
2019-01-13T10:39:26.665Z,99203.63
2019-01-13T10:41:55.143Z,99191.55
2019-01-13T10:44:23.598Z,99191.16
2019-01-13T10:46:52.074Z,99177.14
2019-01-13T10:52:09.620Z,99163.99
2019-01-13T10:57:27.166Z,99156.40
2019-01-13T10:59:55.616Z,99142.45
2019-01-13T11:02:24.094Z,99136.33
2019-01-13T11:04:52.545Z,99125.68
2019-01-13T11:07:21.016Z,99115.73
2019-01-13T11:09:49.471Z,99100.61
2019-01-13T11:12:17.958Z,99101.02
2019-01-13T11:14:46.463Z,99099.47
2019-01-13T11:17:14.951Z,99091.86
2019-01-13T11:19:43.402Z,99081.52
2019-01-13T11:22:11.886Z,99077.23
2019-01-13T11:24:40.342Z,99067.50
2019-01-13T11:27:08.831Z,99058.19
2019-01-13T11:29:37.294Z,99051.11
2019-01-13T11:32:05.780Z,99047.76
2019-01-13T11:34:34.250Z,99035.67
2019-01-13T11:37:02.734Z,99033.11
2019-01-13T11:39:31.183Z,99025.34
2019-01-13T11:41:59.649Z,99014.94
2019-01-13T11:44:28.132Z,99001.63
2019-01-13T11:47:15.817Z,98998.08
2019-01-13T11:49:44.282Z,98986.92
2019-01-13T11:52:12.772Z,98977.02
2019-01-13T11:55:00.466Z,98981.17
2019-01-13T11:57:28.957Z,98956.03
2019-01-13T11:59:57.411Z,98968.19
2019-01-13T12:02:32.419Z,98946.12
2019-01-13T12:04:56.160Z,98949.67
2019-01-13T12:07:24.653Z,98930.25
2019-01-13T12:09:53.122Z,98911.45
2019-01-13T12:12:21.586Z,98905.97
2019-01-13T12:14:50.072Z,98912.20
2019-01-13T12:17:18.523Z,98894.69
2019-01-13T12:19:47.002Z,98889.98
2019-01-13T12:22:15.458Z,98882.86
2019-01-13T12:24:43.930Z,98877.31
2019-01-13T12:27:12.393Z,98872.53
2019-01-13T12:29:40.872Z,98867.58
2019-01-13T12:32:30.003Z,98862.88
2019-01-13T12:34:58.480Z,98859.22
2019-01-13T12:37:26.952Z,98842.44
2019-01-13T12:39:55.448Z,98835.57
2019-01-13T12:45:32.207Z,98820.61
2019-01-13T12:49:00.549Z,98806.61
2019-01-13T12:51:29.007Z,98790.94
2019-01-13T12:53:57.484Z,98784.83
2019-01-13T12:56:25.936Z,98769.70
2019-01-13T12:58:54.443Z,98771.51
2019-01-13T13:01:22.891Z,98762.33
2019-01-13T13:03:51.372Z,98764.34
2019-01-13T13:06:19.845Z,98752.16
2019-01-13T13:08:48.335Z,98747.67
2019-01-13T13:11:16.806Z,98742.25
2019-01-13T13:13:45.290Z,98749.69
2019-01-13T13:16:13.746Z,98746.27
2019-01-13T13:18:42.226Z,98744.46
2019-01-13T13:21:10.691Z,98744.94
2019-01-13T13:23:39.180Z,98728.59
2019-01-13T13:26:07.640Z,98724.38
2019-01-13T13:28:36.133Z,98724.69
2019-01-13T13:31:04.577Z,98715.73
2019-01-13T13:33:38.684Z,98711.27
2019-01-13T13:36:05.452Z,98702.34
2019-01-13T13:38:33.955Z,98700.16
2019-01-13T13:41:02.586Z,98692.81
2019-01-13T13:43:32.784Z,98695.67
2019-01-13T13:46:01.253Z,98690.17
2019-01-13T13:48:29.744Z,98684.36
2019-01-13T13:50:58.218Z,98680.67
2019-01-13T13:53:26.705Z,98670.39
2019-01-13T13:55:55.181Z,98665.84
2019-01-13T13:58:23.635Z,98661.63
2019-01-13T14:00:52.486Z,98658.41
2019-01-13T14:03:20.950Z,98649.56
2019-01-13T14:05:49.437Z,98645.75
2019-01-13T14:08:17.959Z,98640.31
2019-01-13T14:10:46.734Z,98638.61
2019-01-13T14:13:15.271Z,98638.91
2019-01-13T14:15:43.762Z,98628.03
2019-01-13T14:18:12.282Z,98628.33
2019-01-13T14:20:40.753Z,98624.22
2019-01-13T14:23:09.218Z,98607.97
2019-01-13T14:25:37.696Z,98604.23
2019-01-13T14:28:06.158Z,98598.83
2019-01-13T14:30:34.687Z,98601.27
2019-01-13T14:33:03.093Z,98601.45
2019-01-13T14:35:31.571Z,98599.64
2019-01-13T14:38:00.031Z,98602.60
2019-01-13T14:40:28.583Z,98591.75
2019-01-13T14:42:57.049Z,98589.94
2019-01-13T14:45:26.186Z,98596.67
2019-01-13T14:47:54.652Z,98591.26
2019-01-13T14:50:28.772Z,98582.19
2019-01-13T14:52:57.371Z,98575.33
2019-01-13T14:55:25.862Z,98577.20
2019-01-13T14:57:54.502Z,98578.95
2019-01-13T15:00:29.497Z,98565.98
2019-01-13T15:02:58.362Z,98563.48
2019-01-13T15:05:26.890Z,98559.66
2019-01-13T15:07:55.357Z,98549.95
2019-01-13T15:10:25.081Z,98541.36
2019-01-13T15:12:54.482Z,98543.09
2019-01-13T15:15:23.508Z,98534.50
2019-01-13T15:17:51.970Z,98529.53
2019-01-13T15:20:24.895Z,98525.53
2019-01-13T15:22:53.533Z,98529.05
2019-01-13T15:25:25.346Z,98529.33
2019-01-13T15:27:53.942Z,98520.66
2019-01-13T15:30:30.906Z,98517.50
2019-01-13T15:32:59.373Z,98523.03
2019-01-13T15:35:27.907Z,98511.31
2019-01-13T15:37:56.444Z,98507.31
2019-01-13T15:40:25.105Z,98519.61
2019-01-13T15:42:53.672Z,98503.48
2019-01-13T15:45:22.161Z,98507.59
2019-01-13T15:47:50.612Z,98480.20
2019-01-13T15:50:22.169Z,98467.34
2019-01-13T15:52:50.724Z,98460.67
2019-01-13T15:55:19.626Z,98461.08
2019-01-13T15:57:48.192Z,98463.51
2019-01-13T16:00:19.390Z,98462.29
2019-01-13T16:02:48.139Z,98454.17
2019-01-13T16:05:16.937Z,98446.16
2019-01-13T16:07:45.455Z,98438.16
2019-01-13T16:10:16.730Z,98420.12
2019-01-13T16:12:45.211Z,98413.95
2019-01-13T16:15:14.500Z,98409.58
2019-01-13T16:17:42.998Z,98412.61
2019-01-13T16:20:20.810Z,98410.31
2019-01-13T16:22:49.314Z,98396.48
2019-01-13T16:25:17.775Z,98383.42
2019-01-13T16:27:46.269Z,98370.08
2019-01-13T16:30:17.566Z,98387.05
2019-01-13T16:32:46.068Z,98377.23
2019-01-13T16:35:14.646Z,98368.02
2019-01-13T16:37:43.131Z,98360.00
2019-01-13T16:40:14.130Z,98364.73
2019-01-13T16:42:42.605Z,98368.02
2019-01-13T16:45:13.772Z,98374.08
2019-01-13T16:47:42.262Z,98358.92
2019-01-13T16:50:22.521Z,98353.95
2019-01-13T16:52:52.716Z,98344.16
2019-01-13T16:55:21.735Z,98338.81
2019-01-13T16:57:50.393Z,98328.92
2019-01-13T17:00:24.233Z,98323.38
2019-01-13T17:02:52.913Z,98319.02
2019-01-13T17:05:22.677Z,98317.83
2019-01-13T17:07:51.242Z,98310.55
2019-01-13T17:10:21.744Z,98311.40
2019-01-13T17:12:50.368Z,98305.34
2019-01-13T17:15:24.203Z,98290.94
2019-01-13T17:17:52.689Z,98289.69
2019-01-13T17:20:22.680Z,98282.93
2019-01-13T17:22:51.163Z,98273.44
2019-01-13T17:25:25.123Z,98272.62
2019-01-13T17:27:53.743Z,98269.09
2019-01-13T17:30:27.693Z,98265.25
2019-01-13T17:32:56.357Z,98254.57
2019-01-13T17:35:24.992Z,98253.57
2019-01-13T17:37:53.563Z,98244.47
2019-01-13T17:40:23.872Z,98243.27
2019-01-13T17:42:52.519Z,98235.98
2019-01-13T17:45:23.660Z,98230.64
2019-01-13T17:47:52.486Z,98218.61
2019-01-13T17:50:23.117Z,98221.30
2019-01-13T17:52:51.877Z,98209.63
2019-01-13T17:55:22.748Z,98202.11
2019-01-13T17:57:51.405Z,98201.00
2019-01-13T18:00:25.736Z,98186.31
2019-01-13T18:02:55.806Z,98210.73
2019-01-13T18:05:24.266Z,98211.77
2019-01-13T18:07:52.729Z,98211.80
2019-01-13T18:10:21.214Z,98226.68
2019-01-13T18:12:49.692Z,98207.98
2019-01-13T18:15:18.201Z,98202.86
2019-01-13T18:17:46.663Z,98207.92
2019-01-13T18:20:20.231Z,98195.83
2019-01-13T18:22:48.685Z,98180.49
2019-01-13T18:25:18.623Z,98191.41
2019-01-13T18:27:47.083Z,98202.77
2019-01-13T18:30:26.665Z,98201.14
2019-01-13T18:32:55.189Z,98183.08
2019-01-13T18:35:24.424Z,98176.41
2019-01-13T18:37:52.943Z,98188.74
2019-01-13T18:40:22.960Z,98209.92
2019-01-13T18:42:51.551Z,98205.22
2019-01-13T18:45:20.159Z,98172.86
2019-01-13T18:47:48.608Z,98208.48
2019-01-13T18:50:19.772Z,98216.26
2019-01-13T18:52:51.323Z,98220.66
2019-01-13T18:55:19.810Z,98235.30
2019-01-13T18:57:48.271Z,98220.52
2019-01-13T19:00:19.798Z,98226.39
2019-01-13T19:02:48.322Z,98224.53
2019-01-13T19:05:19.043Z,98228.25
2019-01-13T19:07:47.495Z,98226.28
2019-01-13T19:10:21.738Z,98222.03
2019-01-13T19:12:55.109Z,98224.70
2019-01-13T19:15:23.586Z,98225.39
2019-01-13T19:17:54.181Z,98220.55
2019-01-13T19:20:22.660Z,98221.88
2019-01-13T19:22:51.169Z,98229.34
2019-01-13T19:25:19.652Z,98224.02
2019-01-13T19:27:48.104Z,98230.44
2019-01-13T19:30:17.329Z,98220.22
2019-01-13T19:32:45.853Z,98233.91
2019-01-13T19:35:16.311Z,98232.78
2019-01-13T19:37:44.864Z,98227.37
2019-01-13T19:40:16.091Z,98239.56
2019-01-13T19:42:44.818Z,98243.19
2019-01-13T19:45:18.932Z,98245.38
2019-01-13T19:47:47.483Z,98244.45
2019-01-13T19:50:18.740Z,98247.71
2019-01-13T19:52:47.203Z,98244.08
2019-01-13T19:55:17.601Z,98242.05
2019-01-13T19:57:46.165Z,98247.06
2019-01-13T20:00:29.492Z,98254.41
2019-01-13T20:02:57.973Z,98252.59
2019-01-13T20:05:26.443Z,98256.54
2019-01-13T20:07:54.984Z,98252.91
2019-01-13T20:10:23.476Z,98245.97
2019-01-13T20:12:51.958Z,98239.83
2019-01-13T20:15:21.893Z,98260.11
2019-01-13T20:17:50.367Z,98262.69
2019-01-13T20:20:20.263Z,98277.53
2019-01-13T20:22:50.186Z,98276.31
2019-01-13T20:25:19.376Z,98284.50
2019-01-13T20:27:47.858Z,98283.66
2019-01-13T20:30:30.800Z,98272.52
2019-01-13T20:32:59.626Z,98273.17
2019-01-13T20:35:28.103Z,98274.78
2019-01-13T20:37:56.811Z,98276.71
2019-01-13T20:40:25.270Z,98283.48
2019-01-13T20:42:53.752Z,98283.20
2019-01-13T20:45:30.926Z,98293.96
2019-01-13T20:47:59.408Z,98281.69
2019-01-13T20:50:28.035Z,98284.47
2019-01-13T20:52:56.531Z,98283.50
2019-01-13T20:55:25.104Z,98290.53
2019-01-13T20:57:53.579Z,98274.55
2019-01-13T21:00:26.552Z,98284.64
2019-01-13T21:02:55.211Z,98269.05
2019-01-13T21:05:26.835Z,98270.75
2019-01-13T21:07:54.651Z,98272.70
2019-01-13T21:10:23.248Z,98288.48
2019-01-13T21:12:51.793Z,98290.06
2019-01-13T21:15:25.922Z,98276.89
2019-01-13T21:17:57.652Z,98286.87
2019-01-13T21:20:24.602Z,98282.12
2019-01-13T21:22:53.112Z,98286.62
2019-01-13T21:25:21.633Z,98285.95
2019-01-13T21:27:50.399Z,98284.16
2019-01-13T21:30:27.330Z,98276.05
2019-01-13T21:32:56.843Z,98276.35
2019-01-13T21:35:25.576Z,98286.02
2019-01-13T21:37:54.056Z,98286.42
2019-01-13T21:40:22.514Z,98288.43
2019-01-13T21:42:51.010Z,98290.44
2019-01-13T21:45:21.963Z,98295.53
2019-01-13T21:47:50.438Z,98300.85
2019-01-13T21:50:23.805Z,98300.95
2019-01-13T21:52:52.317Z,98296.19
2019-01-13T21:55:20.855Z,98290.12
2019-01-13T21:57:49.302Z,98297.63
2019-01-13T22:00:24.114Z,98291.54
2019-01-13T22:02:52.651Z,98291.54
2019-01-13T22:05:21.408Z,98288.69
2019-01-13T22:07:50.305Z,98299.73
2019-01-13T22:10:21.168Z,98300.18
2019-01-13T22:12:49.621Z,98294.60
2019-01-13T22:15:20.338Z,98297.70
2019-01-13T22:17:48.796Z,98298.77
2019-01-13T22:20:19.622Z,98297.82
2019-01-13T22:22:48.109Z,98297.07
2019-01-13T22:25:17.132Z,98288.43
2019-01-13T22:27:45.655Z,98286.48
2019-01-13T22:30:17.321Z,98280.33
2019-01-13T22:32:45.854Z,98273.48
2019-01-13T22:35:14.340Z,98295.93
2019-01-13T22:37:43.391Z,98290.97
2019-01-13T22:40:14.411Z,98286.42
2019-01-13T22:42:42.923Z,98288.02
2019-01-13T22:45:14.499Z,98280.03
2019-01-13T22:47:43.000Z,98291.45
2019-01-13T22:50:13.843Z,98294.01
2019-01-13T22:52:42.279Z,98316.55
2019-01-13T22:55:11.502Z,98305.14
2019-01-13T22:57:39.955Z,98315.42
2019-01-13T23:00:15.831Z,98309.32
2019-01-13T23:02:44.292Z,98311.91
2019-01-13T23:05:12.817Z,98311.41
2019-01-13T23:07:41.300Z,98304.48
2019-01-13T23:10:09.841Z,98310.65
2019-01-13T23:12:38.317Z,98312.46
2019-01-13T23:15:07.148Z,98307.07
2019-01-13T23:17:35.624Z,98301.94
2019-01-13T23:20:04.914Z,98308.89
2019-01-13T23:22:33.396Z,98299.77
2019-01-13T23:25:01.854Z,98311.48
2019-01-13T23:27:30.357Z,98320.20
2019-01-13T23:29:58.796Z,98325.45
2019-01-13T23:32:27.295Z,98335.53
2019-01-13T23:34:55.756Z,98334.20
2019-01-13T23:37:24.233Z,98352.05
2019-01-13T23:39:52.689Z,98356.52
2019-01-13T23:42:23.781Z,98364.68
2019-01-13T23:44:52.407Z,98348.65
2019-01-13T23:47:21.217Z,98368.12
2019-01-13T23:49:49.714Z,98365.72
2019-01-13T23:52:18.657Z,98374.11
2019-01-13T23:54:48.483Z,98376.84
2019-01-13T23:57:16.980Z,98394.61
2019-01-13T23:59:45.418Z,98378.76
